sensor_id;sensor_type;location;lat;lon;timestamp;pressure;altitude;pressure_sealevel;temperature;humidity
24752;BME280;27246;52.376;4.628;2024-01-07T00:01:49;101794.00;;;4.81;70.08
24752;BME280;27246;52.376;4.628;2024-01-07T00:06:51;101799.53;;;4.45;72.09
24752;BME280;27246;52.376;4.628;2024-01-07T00:11:53;101804.19;;;4.91;70.98
24752;BME280;27246;52.376;4.628;2024-01-07T00:16:55;101815.16;;;4.54;69.71
24752;BME280;27246;52.376;4.628;2024-01-07T00:21:57;101822.28;;;4.44;70.71
24752;BME280;27246;52.376;4.628;2024-01-07T00:26:59;101824.91;;;4.69;70.49
24752;BME280;27246;52.376;4.628;2024-01-07T00:32:02;101824.84;;;4.58;68.50
24752;BME280;27246;52.376;4.628;2024-01-07T00:37:04;101824.16;;;4.67;70.33
24752;BME280;27246;52.376;4.628;2024-01-07T00:42:06;101821.06;;;4.48;70.20
24752;BME280;27246;52.376;4.628;2024-01-07T00:47:08;101841.94;;;4.23;70.90
24752;BME280;27246;52.376;4.628;2024-01-07T00:52:10;101839.22;;;4.23;72.95
24752;BME280;27246;52.376;4.628;2024-01-07T00:57:13;101839.78;;;4.28;72.06
24752;BME280;27246;52.376;4.628;2024-01-07T01:02:15;101843.50;;;4.01;72.04
24752;BME280;27246;52.376;4.628;2024-01-07T01:07:17;101840.25;;;3.84;72.49
24752;BME280;27246;52.376;4.628;2024-01-07T01:12:19;101847.75;;;4.06;71.78
24752;BME280;27246;52.376;4.628;2024-01-07T01:17:21;101855.47;;;4.12;71.88
24752;BME280;27246;52.376;4.628;2024-01-07T01:22:23;101855.50;;;3.99;71.47
24752;BME280;27246;52.376;4.628;2024-01-07T01:27:25;101856.38;;;3.87;74.43
24752;BME280;27246;52.376;4.628;2024-01-07T01:32:27;101856.69;;;3.95;72.75
24752;BME280;27246;52.376;4.628;2024-01-07T01:37:29;101869.91;;;4.38;73.27
24752;BME280;27246;52.376;4.628;2024-01-07T01:42:31;101870.19;;;4.59;76.68
24752;BME280;27246;52.376;4.628;2024-01-07T01:47:33;101874.25;;;3.78;74.92
24752;BME280;27246;52.376;4.628;2024-01-07T01:52:35;101884.28;;;4.40;73.53
24752;BME280;27246;52.376;4.628;2024-01-07T01:57:39;101885.53;;;4.23;72.43
24752;BME280;27246;52.376;4.628;2024-01-07T02:02:42;101888.34;;;4.34;73.14
24752;BME280;27246;52.376;4.628;2024-01-07T02:07:43;101892.97;;;3.70;74.78
24752;BME280;27246;52.376;4.628;2024-01-07T02:12:45;101895.81;;;3.94;74.35
24752;BME280;27246;52.376;4.628;2024-01-07T02:17:47;101901.75;;;4.25;73.66
24752;BME280;27246;52.376;4.628;2024-01-07T02:22:49;101905.66;;;3.56;74.24
24752;BME280;27246;52.376;4.628;2024-01-07T02:27:51;101899.25;;;4.58;76.65
24752;BME280;27246;52.376;4.628;2024-01-07T02:32:53;101900.59;;;4.53;73.99
24752;BME280;27246;52.376;4.628;2024-01-07T02:37:55;101906.34;;;3.73;74.07
24752;BME280;27246;52.376;4.628;2024-01-07T02:42:56;101910.34;;;3.67;75.22
24752;BME280;27246;52.376;4.628;2024-01-07T02:47:59;101905.47;;;3.72;77.20
24752;BME280;27246;52.376;4.628;2024-01-07T02:53:01;101915.94;;;4.04;76.38
24752;BME280;27246;52.376;4.628;2024-01-07T02:58:03;101938.78;;;4.77;76.45
24752;BME280;27246;52.376;4.628;2024-01-07T03:03:05;101932.53;;;4.38;75.34
24752;BME280;27246;52.376;4.628;2024-01-07T03:08:07;101938.06;;;3.47;76.33
24752;BME280;27246;52.376;4.628;2024-01-07T03:13:09;101948.75;;;3.23;76.57
24752;BME280;27246;52.376;4.628;2024-01-07T03:18:11;101944.34;;;2.80;78.64
24752;BME280;27246;52.376;4.628;2024-01-07T03:23:13;101948.91;;;3.34;79.19
24752;BME280;27246;52.376;4.628;2024-01-07T03:28:14;101950.84;;;3.85;78.81
24752;BME280;27246;52.376;4.628;2024-01-07T03:33:17;101959.03;;;3.97;77.89
24752;BME280;27246;52.376;4.628;2024-01-07T03:38:19;101961.44;;;3.49;75.38
24752;BME280;27246;52.376;4.628;2024-01-07T03:43:21;101968.63;;;4.78;76.46
24752;BME280;27246;52.376;4.628;2024-01-07T03:48:22;101967.47;;;3.67;75.56
24752;BME280;27246;52.376;4.628;2024-01-07T03:53:25;101989.72;;;3.87;76.09
24752;BME280;27246;52.376;4.628;2024-01-07T03:58:26;101989.75;;;4.38;74.38
24752;BME280;27246;52.376;4.628;2024-01-07T04:03:28;101997.97;;;3.85;75.75
24752;BME280;27246;52.376;4.628;2024-01-07T04:08:30;101999.88;;;3.57;76.72
24752;BME280;27246;52.376;4.628;2024-01-07T04:13:32;102002.00;;;3.39;77.07
24752;BME280;27246;52.376;4.628;2024-01-07T04:18:34;102013.53;;;3.16;77.77
24752;BME280;27246;52.376;4.628;2024-01-07T04:23:36;102018.34;;;2.98;77.50
24752;BME280;27246;52.376;4.628;2024-01-07T04:28:42;102020.78;;;2.88;79.89
24752;BME280;27246;52.376;4.628;2024-01-07T04:33:44;102027.09;;;2.74;79.41
24752;BME280;27246;52.376;4.628;2024-01-07T04:38:46;102028.78;;;2.63;80.35
24752;BME280;27246;52.376;4.628;2024-01-07T04:43:47;102024.66;;;2.84;80.74
24752;BME280;27246;52.376;4.628;2024-01-07T04:48:49;102031.97;;;3.11;80.79
24752;BME280;27246;52.376;4.628;2024-01-07T04:53:51;102035.25;;;3.30;78.33
24752;BME280;27246;52.376;4.628;2024-01-07T04:58:53;102042.81;;;3.39;79.27
24752;BME280;27246;52.376;4.628;2024-01-07T05:03:55;102042.66;;;3.14;79.35
24752;BME280;27246;52.376;4.628;2024-01-07T05:08:57;102054.81;;;3.08;78.12
24752;BME280;27246;52.376;4.628;2024-01-07T05:13:58;102052.41;;;3.04;79.24
24752;BME280;27246;52.376;4.628;2024-01-07T05:19:00;102069.00;;;2.85;78.57
24752;BME280;27246;52.376;4.628;2024-01-07T05:24:02;102071.63;;;2.86;79.80
24752;BME280;27246;52.376;4.628;2024-01-07T05:29:05;102088.03;;;2.99;80.02
24752;BME280;27246;52.376;4.628;2024-01-07T05:34:07;102093.66;;;2.82;79.66
24752;BME280;27246;52.376;4.628;2024-01-07T05:39:09;102097.72;;;2.60;80.48
24752;BME280;27246;52.376;4.628;2024-01-07T05:44:11;102096.06;;;2.43;82.23
24752;BME280;27246;52.376;4.628;2024-01-07T05:49:13;102099.66;;;2.72;82.36
24752;BME280;27246;52.376;4.628;2024-01-07T05:54:15;102118.75;;;3.28;80.34
24752;BME280;27246;52.376;4.628;2024-01-07T05:59:17;102110.44;;;2.74;81.60
24752;BME280;27246;52.376;4.628;2024-01-07T06:04:19;102121.22;;;3.04;81.58
24752;BME280;27246;52.376;4.628;2024-01-07T06:09:21;102130.41;;;3.16;83.12
24752;BME280;27246;52.376;4.628;2024-01-07T06:14:23;102140.31;;;2.74;82.47
24752;BME280;27246;52.376;4.628;2024-01-07T06:19:24;102141.78;;;2.65;82.72
24752;BME280;27246;52.376;4.628;2024-01-07T06:24:26;102158.81;;;2.53;83.12
24752;BME280;27246;52.376;4.628;2024-01-07T06:29:28;102157.38;;;2.62;81.82
24752;BME280;27246;52.376;4.628;2024-01-07T06:34:30;102168.16;;;3.35;81.54
24752;BME280;27246;52.376;4.628;2024-01-07T06:39:32;102170.72;;;3.09;78.58
24752;BME280;27246;52.376;4.628;2024-01-07T06:44:36;102185.63;;;2.73;78.67
24752;BME280;27246;52.376;4.628;2024-01-07T06:49:37;102192.41;;;2.80;79.91
24752;BME280;27246;52.376;4.628;2024-01-07T06:54:40;102198.84;;;2.79;79.71
24752;BME280;27246;52.376;4.628;2024-01-07T06:59:42;102212.81;;;2.43;77.93
24752;BME280;27246;52.376;4.628;2024-01-07T07:04:44;102226.56;;;2.24;80.94
24752;BME280;27246;52.376;4.628;2024-01-07T07:09:48;102219.31;;;3.57;79.03
24752;BME280;27246;52.376;4.628;2024-01-07T07:14:50;102241.16;;;2.84;76.45
24752;BME280;27246;52.376;4.628;2024-01-07T07:20:00;102252.03;;;2.37;78.00
24752;BME280;27246;52.376;4.628;2024-01-07T07:25:03;102250.81;;;3.32;77.00
24752;BME280;27246;52.376;4.628;2024-01-07T07:30:05;102266.16;;;2.89;77.54
24752;BME280;27246;52.376;4.628;2024-01-07T07:35:08;102271.41;;;3.51;74.93
24752;BME280;27246;52.376;4.628;2024-01-07T07:40:13;102269.13;;;3.00;75.84
24752;BME280;27246;52.376;4.628;2024-01-07T07:45:15;102268.38;;;3.12;78.96
24752;BME280;27246;52.376;4.628;2024-01-07T07:50:17;102279.38;;;2.34;75.10
24752;BME280;27246;52.376;4.628;2024-01-07T07:55:19;102298.41;;;2.34;75.75
24752;BME280;27246;52.376;4.628;2024-01-07T08:00:21;102299.78;;;3.02;75.85
24752;BME280;27246;52.376;4.628;2024-01-07T08:05:28;102315.97;;;1.95;75.42
24752;BME280;27246;52.376;4.628;2024-01-07T08:10:30;102322.91;;;1.52;78.36
24752;BME280;27246;52.376;4.628;2024-01-07T08:15:33;102326.75;;;1.48;79.67
24752;BME280;27246;52.376;4.628;2024-01-07T08:20:38;102346.84;;;1.44;79.75
24752;BME280;27246;52.376;4.628;2024-01-07T08:25:39;102343.09;;;1.46;80.40
24752;BME280;27246;52.376;4.628;2024-01-07T08:30:43;102351.72;;;1.70;80.10
24752;BME280;27246;52.376;4.628;2024-01-07T08:35:46;102373.78;;;1.47;79.61
24752;BME280;27246;52.376;4.628;2024-01-07T08:40:49;102367.75;;;1.57;78.96
24752;BME280;27246;52.376;4.628;2024-01-07T08:45:50;102370.97;;;2.15;77.33
24752;BME280;27246;52.376;4.628;2024-01-07T08:50:53;102384.44;;;2.64;74.75
24752;BME280;27246;52.376;4.628;2024-01-07T08:55:54;102387.84;;;2.84;74.53
24752;BME280;27246;52.376;4.628;2024-01-07T09:00:59;102389.16;;;3.23;73.37
24752;BME280;27246;52.376;4.628;2024-01-07T09:06:01;102397.69;;;3.47;74.89
24752;BME280;27246;52.376;4.628;2024-01-07T09:11:04;102400.66;;;2.82;71.14
24752;BME280;27246;52.376;4.628;2024-01-07T09:16:07;102412.56;;;2.31;71.50
24752;BME280;27246;52.376;4.628;2024-01-07T09:21:13;102425.84;;;2.04;71.46
24752;BME280;27246;52.376;4.628;2024-01-07T09:26:15;102438.66;;;1.67;72.95
24752;BME280;27246;52.376;4.628;2024-01-07T09:31:19;102428.44;;;2.06;72.73
24752;BME280;27246;52.376;4.628;2024-01-07T09:36:21;102429.88;;;2.13;71.91
24752;BME280;27246;52.376;4.628;2024-01-07T09:41:31;102445.00;;;2.34;73.02
24752;BME280;27246;52.376;4.628;2024-01-07T09:46:41;102448.69;;;2.65;71.27
24752;BME280;27246;52.376;4.628;2024-01-07T09:51:45;102463.31;;;2.13;71.13
24752;BME280;27246;52.376;4.628;2024-01-07T09:57:03;102462.00;;;3.02;72.75
24752;BME280;27246;52.376;4.628;2024-01-07T10:02:05;102468.81;;;2.93;70.70
24752;BME280;27246;52.376;4.628;2024-01-07T10:07:08;102472.00;;;3.01;73.70
24752;BME280;27246;52.376;4.628;2024-01-07T10:12:15;102484.25;;;2.45;71.99
24752;BME280;27246;52.376;4.628;2024-01-07T10:17:17;102482.84;;;2.20;71.13
24752;BME280;27246;52.376;4.628;2024-01-07T10:22:19;102482.56;;;2.09;71.62
24752;BME280;27246;52.376;4.628;2024-01-07T10:27:22;102487.66;;;2.15;72.45
24752;BME280;27246;52.376;4.628;2024-01-07T10:32:24;102488.88;;;2.58;73.04
24752;BME280;27246;52.376;4.628;2024-01-07T10:37:27;102510.72;;;2.57;69.74
24752;BME280;27246;52.376;4.628;2024-01-07T10:42:33;102502.19;;;2.14;70.42
24752;BME280;27246;52.376;4.628;2024-01-07T10:47:36;102498.13;;;2.05;71.14
24752;BME280;27246;52.376;4.628;2024-01-07T10:52:40;102510.31;;;2.31;70.51
24752;BME280;27246;52.376;4.628;2024-01-07T10:57:46;102507.41;;;2.01;70.89
24752;BME280;27246;52.376;4.628;2024-01-07T11:08:07;102519.25;;;2.33;70.85
24752;BME280;27246;52.376;4.628;2024-01-07T11:13:51;102525.66;;;2.15;70.85
24752;BME280;27246;52.376;4.628;2024-01-07T11:18:54;102524.75;;;2.32;70.87
24752;BME280;27246;52.376;4.628;2024-01-07T11:23:56;102531.44;;;2.42;70.18
24752;BME280;27246;52.376;4.628;2024-01-07T11:29:00;102532.38;;;2.74;69.47
24752;BME280;27246;52.376;4.628;2024-01-07T11:34:02;102539.72;;;2.72;67.41
24752;BME280;27246;52.376;4.628;2024-01-07T11:39:04;102537.84;;;2.41;67.96
24752;BME280;27246;52.376;4.628;2024-01-07T11:44:10;102540.34;;;2.77;67.07
24752;BME280;27246;52.376;4.628;2024-01-07T11:49:13;102550.91;;;2.99;66.87
24752;BME280;27246;52.376;4.628;2024-01-07T11:54:17;102553.16;;;1.74;65.71
24752;BME280;27246;52.376;4.628;2024-01-07T11:59:19;102540.28;;;1.77;65.67
24752;BME280;27246;52.376;4.628;2024-01-07T12:04:23;102539.81;;;1.87;65.93
24752;BME280;27246;52.376;4.628;2024-01-07T12:09:29;102541.47;;;1.89;64.86
24752;BME280;27246;52.376;4.628;2024-01-07T12:14:30;102557.63;;;1.92;64.55
24752;BME280;27246;52.376;4.628;2024-01-07T12:19:34;102540.06;;;1.82;66.40
24752;BME280;27246;52.376;4.628;2024-01-07T12:24:36;102552.59;;;1.85;65.26
24752;BME280;27246;52.376;4.628;2024-01-07T12:29:38;102558.09;;;2.00;65.15
24752;BME280;27246;52.376;4.628;2024-01-07T12:34:39;102553.13;;;2.09;66.22
24752;BME280;27246;52.376;4.628;2024-01-07T12:39:42;102559.47;;;2.43;65.52
24752;BME280;27246;52.376;4.628;2024-01-07T12:44:46;102562.00;;;2.12;65.00
24752;BME280;27246;52.376;4.628;2024-01-07T12:50:13;102557.13;;;2.02;64.29
24752;BME280;27246;52.376;4.628;2024-01-07T12:55:32;102563.22;;;2.40;65.00
24752;BME280;27246;52.376;4.628;2024-01-07T13:00:41;102556.47;;;2.14;64.58
24752;BME280;27246;52.376;4.628;2024-01-07T13:05:52;102564.13;;;2.40;64.47
24752;BME280;27246;52.376;4.628;2024-01-07T13:10:54;102574.19;;;2.88;64.45
24752;BME280;27246;52.376;4.628;2024-01-07T13:15:59;102572.69;;;1.98;64.77
24752;BME280;27246;52.376;4.628;2024-01-07T13:21:03;102585.09;;;3.35;65.28
24752;BME280;27246;52.376;4.628;2024-01-07T13:26:05;102589.59;;;2.71;62.22
24752;BME280;27246;52.376;4.628;2024-01-07T13:31:08;102606.44;;;2.10;63.44
24752;BME280;27246;52.376;4.628;2024-01-07T13:36:11;102607.56;;;2.23;63.47
24752;BME280;27246;52.376;4.628;2024-01-07T13:41:14;102609.16;;;2.45;62.18
24752;BME280;27246;52.376;4.628;2024-01-07T13:46:19;102610.53;;;2.18;62.65
24752;BME280;27246;52.376;4.628;2024-01-07T13:51:23;102608.34;;;2.08;63.31
24752;BME280;27246;52.376;4.628;2024-01-07T13:56:25;102612.03;;;2.24;62.60
24752;BME280;27246;52.376;4.628;2024-01-07T14:01:27;102609.63;;;2.35;62.99
24752;BME280;27246;52.376;4.628;2024-01-07T14:06:29;102627.19;;;2.28;63.39
24752;BME280;27246;52.376;4.628;2024-01-07T14:11:31;102629.50;;;3.52;64.02
24752;BME280;27246;52.376;4.628;2024-01-07T14:16:32;102645.19;;;2.82;63.23
24752;BME280;27246;52.376;4.628;2024-01-07T14:21:34;102639.03;;;2.27;63.73
24752;BME280;27246;52.376;4.628;2024-01-07T14:26:36;102666.09;;;1.75;63.31
24752;BME280;27246;52.376;4.628;2024-01-07T14:31:38;102666.94;;;2.12;62.80
24752;BME280;27246;52.376;4.628;2024-01-07T14:36:41;102677.13;;;1.72;63.42
24752;BME280;27246;52.376;4.628;2024-01-07T14:41:45;102685.03;;;1.94;63.56
24752;BME280;27246;52.376;4.628;2024-01-07T14:46:48;102683.66;;;1.85;64.45
24752;BME280;27246;52.376;4.628;2024-01-07T14:51:50;102700.63;;;1.71;63.84
24752;BME280;27246;52.376;4.628;2024-01-07T14:56:51;102706.06;;;1.52;64.33
24752;BME280;27246;52.376;4.628;2024-01-07T15:01:53;102713.66;;;1.63;64.92
24752;BME280;27246;52.376;4.628;2024-01-07T15:06:55;102707.38;;;1.63;64.07
24752;BME280;27246;52.376;4.628;2024-01-07T15:11:58;102721.09;;;2.15;65.33
24752;BME280;27246;52.376;4.628;2024-01-07T15:17:00;102724.81;;;1.76;63.85
24752;BME280;27246;52.376;4.628;2024-01-07T15:22:02;102724.44;;;1.65;64.79
24752;BME280;27246;52.376;4.628;2024-01-07T15:27:05;102738.59;;;1.71;65.56
24752;BME280;27246;52.376;4.628;2024-01-07T15:32:06;102734.63;;;1.78;65.14
24752;BME280;27246;52.376;4.628;2024-01-07T15:37:11;102739.19;;;1.78;65.68
24752;BME280;27246;52.376;4.628;2024-01-07T15:42:13;102752.00;;;1.55;66.29
24752;BME280;27246;52.376;4.628;2024-01-07T15:47:15;102759.13;;;1.77;66.29
24752;BME280;27246;52.376;4.628;2024-01-07T15:52:17;102765.66;;;1.73;66.66
24752;BME280;27246;52.376;4.628;2024-01-07T15:57:19;102775.19;;;1.63;66.90
24752;BME280;27246;52.376;4.628;2024-01-07T16:02:21;102779.38;;;1.70;66.38
24752;BME280;27246;52.376;4.628;2024-01-07T16:07:23;102793.00;;;1.68;66.96
24752;BME280;27246;52.376;4.628;2024-01-07T16:12:24;102791.25;;;1.86;68.28
24752;BME280;27246;52.376;4.628;2024-01-07T16:17:26;102800.63;;;1.79;68.22
24752;BME280;27246;52.376;4.628;2024-01-07T16:22:34;102798.06;;;1.76;68.21
24752;BME280;27246;52.376;4.628;2024-01-07T16:27:45;102804.50;;;1.73;68.31
24752;BME280;27246;52.376;4.628;2024-01-07T16:32:47;102806.03;;;1.79;69.54
24752;BME280;27246;52.376;4.628;2024-01-07T16:37:58;102819.03;;;1.72;69.29
24752;BME280;27246;52.376;4.628;2024-01-07T16:43:03;102815.63;;;1.48;69.40
24752;BME280;27246;52.376;4.628;2024-01-07T16:48:14;102823.94;;;1.64;68.90
24752;BME280;27246;52.376;4.628;2024-01-07T16:53:38;102829.06;;;1.70;68.48
24752;BME280;27246;52.376;4.628;2024-01-07T16:58:43;102849.59;;;1.76;69.41
24752;BME280;27246;52.376;4.628;2024-01-07T17:03:45;102848.56;;;1.78;69.00
24752;BME280;27246;52.376;4.628;2024-01-07T17:08:47;102865.66;;;1.80;68.51
24752;BME280;27246;52.376;4.628;2024-01-07T17:13:49;102857.53;;;2.18;68.26
24752;BME280;27246;52.376;4.628;2024-01-07T17:18:51;102876.75;;;1.95;69.78
24752;BME280;27246;52.376;4.628;2024-01-07T17:23:54;102884.66;;;1.99;70.85
24752;BME280;27246;52.376;4.628;2024-01-07T17:28:58;102887.28;;;1.82;72.98
24752;BME280;27246;52.376;4.628;2024-01-07T17:34:03;102897.63;;;1.74;74.03
24752;BME280;27246;52.376;4.628;2024-01-07T17:39:12;102895.50;;;1.99;74.09
24752;BME280;27246;52.376;4.628;2024-01-07T17:44:27;102892.47;;;1.68;74.60
24752;BME280;27246;52.376;4.628;2024-01-07T17:49:35;102894.75;;;1.77;74.54
24752;BME280;27246;52.376;4.628;2024-01-07T17:55:22;102911.72;;;1.82;74.90
24752;BME280;27246;52.376;4.628;2024-01-07T18:00:24;102912.53;;;1.84;73.70
24752;BME280;27246;52.376;4.628;2024-01-07T18:05:26;102910.19;;;1.95;74.26
24752;BME280;27246;52.376;4.628;2024-01-07T18:10:46;102921.88;;;1.77;74.53
24752;BME280;27246;52.376;4.628;2024-01-07T18:15:59;102930.41;;;1.88;73.79
24752;BME280;27246;52.376;4.628;2024-01-07T18:21:15;102938.91;;;1.80;73.64
24752;BME280;27246;52.376;4.628;2024-01-07T18:26:17;102943.06;;;1.88;74.33
24752;BME280;27246;52.376;4.628;2024-01-07T18:31:19;102945.28;;;1.59;75.13
24752;BME280;27246;52.376;4.628;2024-01-07T18:36:33;102954.44;;;1.56;75.12
24752;BME280;27246;52.376;4.628;2024-01-07T18:41:37;102948.19;;;1.75;74.56
24752;BME280;27246;52.376;4.628;2024-01-07T18:46:52;102954.97;;;1.65;73.69
24752;BME280;27246;52.376;4.628;2024-01-07T18:51:57;102964.19;;;1.40;74.05
24752;BME280;27246;52.376;4.628;2024-01-07T18:57:12;102968.28;;;1.71;73.55
24752;BME280;27246;52.376;4.628;2024-01-07T19:02:21;102962.41;;;1.59;73.72
24752;BME280;27246;52.376;4.628;2024-01-07T19:07:57;102966.22;;;1.55;73.36
24752;BME280;27246;52.376;4.628;2024-01-07T19:13:12;102980.47;;;1.60;73.31
24752;BME280;27246;52.376;4.628;2024-01-07T19:18:57;102991.53;;;1.76;73.28
24752;BME280;27246;52.376;4.628;2024-01-07T19:24:02;102986.84;;;1.80;72.88
24752;BME280;27246;52.376;4.628;2024-01-07T19:29:07;102999.50;;;2.20;72.47
24752;BME280;27246;52.376;4.628;2024-01-07T19:34:09;103002.97;;;2.04;72.14
24752;BME280;27246;52.376;4.628;2024-01-07T19:39:14;103010.44;;;1.98;73.77
24752;BME280;27246;52.376;4.628;2024-01-07T19:44:23;103007.19;;;2.11;73.48
24752;BME280;27246;52.376;4.628;2024-01-07T19:49:27;103012.00;;;2.04;72.10
24752;BME280;27246;52.376;4.628;2024-01-07T19:54:30;103017.88;;;2.14;72.49
24752;BME280;27246;52.376;4.628;2024-01-07T19:59:32;103016.16;;;1.72;72.90
24752;BME280;27246;52.376;4.628;2024-01-07T20:04:45;103024.97;;;1.77;73.40
24752;BME280;27246;52.376;4.628;2024-01-07T20:09:46;103018.66;;;1.76;72.21
24752;BME280;27246;52.376;4.628;2024-01-07T20:14:50;103030.81;;;1.88;72.31
24752;BME280;27246;52.376;4.628;2024-01-07T20:19:52;103026.53;;;1.83;72.12
24752;BME280;27246;52.376;4.628;2024-01-07T20:24:57;103022.91;;;2.23;70.57
24752;BME280;27246;52.376;4.628;2024-01-07T20:30:02;103030.00;;;1.66;71.33
24752;BME280;27246;52.376;4.628;2024-01-07T20:35:13;103024.56;;;1.86;71.32
24752;BME280;27246;52.376;4.628;2024-01-07T20:40:15;103028.03;;;2.10;72.60
24752;BME280;27246;52.376;4.628;2024-01-07T20:45:17;103025.59;;;2.04;71.96
24752;BME280;27246;52.376;4.628;2024-01-07T20:50:21;103019.41;;;2.00;71.92
24752;BME280;27246;52.376;4.628;2024-01-07T20:55:23;103023.69;;;2.06;72.61
24752;BME280;27246;52.376;4.628;2024-01-07T21:00:28;103023.22;;;1.96;73.59
24752;BME280;27246;52.376;4.628;2024-01-07T21:05:30;103023.72;;;2.25;72.54
24752;BME280;27246;52.376;4.628;2024-01-07T21:10:32;103020.13;;;2.25;72.39
24752;BME280;27246;52.376;4.628;2024-01-07T21:15:35;103020.78;;;2.30;72.18
24752;BME280;27246;52.376;4.628;2024-01-07T21:20:43;103024.25;;;2.52;71.18
24752;BME280;27246;52.376;4.628;2024-01-07T21:25:48;103022.59;;;2.69;76.07
24752;BME280;27246;52.376;4.628;2024-01-07T21:30:50;103018.97;;;2.68;71.06
24752;BME280;27246;52.376;4.628;2024-01-07T21:35:55;103032.78;;;2.64;70.94
24752;BME280;27246;52.376;4.628;2024-01-07T21:41:05;103037.19;;;2.66;70.82
24752;BME280;27246;52.376;4.628;2024-01-07T21:46:07;103034.56;;;2.65;70.36
24752;BME280;27246;52.376;4.628;2024-01-07T21:51:09;103044.25;;;2.70;70.26
24752;BME280;27246;52.376;4.628;2024-01-07T21:56:12;103034.69;;;2.62;70.17
24752;BME280;27246;52.376;4.628;2024-01-07T22:01:14;103041.97;;;2.61;70.32
24752;BME280;27246;52.376;4.628;2024-01-07T22:06:16;103038.09;;;2.67;70.11
24752;BME280;27246;52.376;4.628;2024-01-07T22:11:19;103042.16;;;2.37;70.22
24752;BME280;27246;52.376;4.628;2024-01-07T22:16:22;103044.88;;;2.37;71.27
24752;BME280;27246;52.376;4.628;2024-01-07T22:21:24;103044.28;;;2.50;70.54
24752;BME280;27246;52.376;4.628;2024-01-07T22:26:26;103048.75;;;2.32;70.17
24752;BME280;27246;52.376;4.628;2024-01-07T22:31:31;103053.00;;;2.37;71.26
24752;BME280;27246;52.376;4.628;2024-01-07T22:36:33;103054.91;;;2.35;70.96
24752;BME280;27246;52.376;4.628;2024-01-07T22:41:42;103056.56;;;2.19;70.92
24752;BME280;27246;52.376;4.628;2024-01-07T22:46:46;103055.59;;;2.20;70.82
24752;BME280;27246;52.376;4.628;2024-01-07T22:51:50;103064.44;;;2.05;71.65
24752;BME280;27246;52.376;4.628;2024-01-07T22:56:52;103063.84;;;1.98;72.88
24752;BME280;27246;52.376;4.628;2024-01-07T23:01:54;103073.94;;;1.94;73.00
24752;BME280;27246;52.376;4.628;2024-01-07T23:06:55;103074.00;;;1.93;73.52
24752;BME280;27246;52.376;4.628;2024-01-07T23:11:57;103080.13;;;1.98;73.87
24752;BME280;27246;52.376;4.628;2024-01-07T23:17:00;103079.91;;;1.82;74.43
24752;BME280;27246;52.376;4.628;2024-01-07T23:22:02;103087.81;;;1.66;75.44
24752;BME280;27246;52.376;4.628;2024-01-07T23:27:04;103084.69;;;1.75;76.09
24752;BME280;27246;52.376;4.628;2024-01-07T23:32:06;103083.03;;;1.51;77.03
24752;BME280;27246;52.376;4.628;2024-01-07T23:37:08;103084.31;;;1.85;76.22
24752;BME280;27246;52.376;4.628;2024-01-07T23:42:10;103080.94;;;2.00;76.10
24752;BME280;27246;52.376;4.628;2024-01-07T23:47:12;103092.53;;;2.04;75.29
24752;BME280;27246;52.376;4.628;2024-01-07T23:52:14;103078.63;;;1.48;76.75
24752;BME280;27246;52.376;4.628;2024-01-07T23:57:16;103076.72;;;1.72;76.91
